»·PEaware :: GAIN CYND-CYHU

GAIN :: CYND-CYHU

FLIGHT INFORMATION

Flight Status: Arrived
Operator: Unknown
More flights by this operator :: More flights under this callsign
Pilot: Pierre B. (18725)
Aircraft: Unknown
(AA5B)
More flights by this aircraft type
Origin: CYND Ottawa/Gatineau
Canada
Destination: CYHU Montreal/St-Hubert
Canada
More flights between these airports :: More routes between these airports
Route:
File this flight plan on PilotEdge
Remarks: Sample flight plan
Altitude:
(Current/Filed)
3,500ft
Speed:
(Current/Filed)
115kts
Departed: 01-Apr-18 04:01 AM
Arrived: 01-Apr-18 04:49 AM
Distance/Time
Traveled:
91nm/0:48
Distance/Time
To Go:
Arrived

Flight Plot

Page will automatically refresh every two minutes.

Flight plan parsing failed; only flown route is shown


Map Options




Map Legend


Flown Route
Filed Route
Departure Airport
Arrival Airport
Navaid (VOR, NDB)
Fix

Horizontal Profiles

Position Reports

Time Latitude Longitude Heading Altitude Ground
Speed
01-Apr-18 03:21 45.518479 -75.561470 9 205ft 0kts
01-Apr-18 03:22 45.518479 -75.561470 9 205ft 0kts
01-Apr-18 03:23 45.518479 -75.561470 9 205ft 0kts
01-Apr-18 03:24 45.518479 -75.561470 9 205ft 0kts
01-Apr-18 03:25 45.518479 -75.561470 9 205ft 0kts
01-Apr-18 03:26 45.518479 -75.561470 9 205ft 0kts
01-Apr-18 03:27 45.518479 -75.561470 9 205ft 0kts
01-Apr-18 03:28 45.518479 -75.561470 9 205ft 0kts
01-Apr-18 03:29 45.518479 -75.561470 9 205ft 0kts
01-Apr-18 03:30 45.518479 -75.561470 9 205ft 0kts
01-Apr-18 03:31 45.518479 -75.561470 9 205ft 0kts
01-Apr-18 03:32 45.518479 -75.561470 9 205ft 0kts
01-Apr-18 03:33 45.518479 -75.561470 9 205ft 0kts
01-Apr-18 03:34 45.518479 -75.561470 9 205ft 0kts
01-Apr-18 03:35 45.518479 -75.561470 9 205ft 0kts
01-Apr-18 03:36 45.518479 -75.561470 9 205ft 0kts
01-Apr-18 03:37 45.518479 -75.561470 9 205ft 0kts
01-Apr-18 03:38 45.518479 -75.561470 9 205ft 0kts
01-Apr-18 03:39 45.518479 -75.561470 9 205ft 0kts
01-Apr-18 03:40 45.518479 -75.561470 9 205ft 0kts
01-Apr-18 03:41 45.518479 -75.561470 9 205ft 0kts
01-Apr-18 03:42 45.518479 -75.561470 9 205ft 0kts
01-Apr-18 03:43 45.518479 -75.561470 9 205ft 0kts
01-Apr-18 03:44 45.518479 -75.561470 9 205ft 0kts
01-Apr-18 03:45 45.518479 -75.561470 9 205ft 0kts
01-Apr-18 03:46 45.518479 -75.561470 9 205ft 0kts
01-Apr-18 03:47 45.518479 -75.561470 9 205ft 0kts
01-Apr-18 03:48 45.518479 -75.561470 9 205ft 0kts
01-Apr-18 03:49 45.518479 -75.561470 9 205ft 0kts
01-Apr-18 03:50 45.518479 -75.561470 9 205ft 0kts
01-Apr-18 03:51 45.518479 -75.561470 9 205ft 0kts
01-Apr-18 03:52 45.518479 -75.561470 9 205ft 0kts
01-Apr-18 03:53 45.518479 -75.561470 9 205ft 0kts
01-Apr-18 03:54 45.518479 -75.561470 9 205ft 0kts
01-Apr-18 03:55 45.518479 -75.561470 9 205ft 0kts
01-Apr-18 03:56 45.518479 -75.561470 9 205ft 0kts
01-Apr-18 03:57 45.518479 -75.561470 9 205ft 0kts
01-Apr-18 03:58 45.518479 -75.561470 9 205ft 0kts
01-Apr-18 03:59 45.520305 -75.563077 344 209ft 9kts
01-Apr-18 04:00 45.523102 -75.555765 74 304ft 80kts
01-Apr-18 04:01 45.529129 -75.525622 73 1548ft 80kts
01-Apr-18 04:02 45.535013 -75.500391 70 2507ft 82kts
01-Apr-18 04:03 45.540573 -75.469922 97 3589ft 85kts
01-Apr-18 04:04 45.537524 -75.420261 92 3518ft 134kts
01-Apr-18 04:05 45.536748 -75.373535 90 3518ft 131kts
01-Apr-18 04:06 45.536527 -75.327986 90 3518ft 130kts
01-Apr-18 04:07 45.536446 -75.285185 90 3518ft 130kts
01-Apr-18 04:08 45.536378 -75.233558 90 3518ft 130kts
01-Apr-18 04:09 45.536300 -75.181599 90 3518ft 132kts
01-Apr-18 04:10 45.536201 -75.129123 90 3518ft 132kts
01-Apr-18 04:11 45.536080 -75.076742 90 3518ft 132kts
01-Apr-18 04:12 45.535935 -75.024065 90 3518ft 132kts
01-Apr-18 04:13 45.535767 -74.971641 90 3518ft 132kts
01-Apr-18 04:14 45.535573 -74.919039 90 3518ft 132kts
01-Apr-18 04:15 45.535356 -74.866397 90 3518ft 132kts
01-Apr-18 04:16 45.535114 -74.813822 90 3518ft 132kts
01-Apr-18 04:17 45.534848 -74.761092 90 3518ft 132kts
01-Apr-18 04:18 45.534558 -74.708449 90 3518ft 132kts
01-Apr-18 04:19 45.534243 -74.655791 90 3518ft 133kts
01-Apr-18 04:20 45.533905 -74.603153 90 3518ft 133kts
01-Apr-18 04:21 45.533541 -74.550409 90 3518ft 133kts
01-Apr-18 04:22 45.533154 -74.497716 90 3518ft 133kts
01-Apr-18 04:23 45.532742 -74.444931 90 3518ft 133kts
01-Apr-18 04:24 45.532305 -74.392132 90 3518ft 133kts
01-Apr-18 04:25 45.531857 -74.340849 90 3518ft 133kts
01-Apr-18 04:26 45.531384 -74.289279 90 3518ft 133kts
01-Apr-18 04:27 45.530878 -74.236700 90 3518ft 133kts
01-Apr-18 04:28 45.530351 -74.184519 90 3518ft 133kts
01-Apr-18 04:29 45.529796 -74.131840 90 3518ft 133kts
01-Apr-18 04:30 45.528723 -74.079080 91 3518ft 133kts
01-Apr-18 04:31 45.527935 -74.026506 91 3518ft 133kts
01-Apr-18 04:32 45.527298 -73.975248 91 3518ft 133kts
01-Apr-18 04:33 45.526678 -73.926448 91 3518ft 133kts
01-Apr-18 04:34 45.526015 -73.875996 91 3518ft 133kts
01-Apr-18 04:35 45.525338 -73.826050 91 3518ft 133kts
01-Apr-18 04:36 45.524659 -73.777564 91 3518ft 133kts
01-Apr-18 04:37 45.524112 -73.739496 91 3518ft 133kts
01-Apr-18 04:38 45.523407 -73.691701 91 3518ft 133kts
01-Apr-18 04:39 45.522737 -73.647516 91 3497ft 134kts
01-Apr-18 04:40 45.522137 -73.606910 91 3162ft 120kts
01-Apr-18 04:41 45.521516 -73.566599 90 2750ft 107kts
01-Apr-18 04:42 45.511127 -73.535444 139 2202ft 95kts
01-Apr-18 04:43 45.492288 -73.514925 148 1732ft 93kts
01-Apr-18 04:44 45.475553 -73.491466 72 1527ft 85kts
01-Apr-18 04:45 45.486761 -73.465537 47 1109ft 74kts
01-Apr-18 04:46 45.500794 -73.444766 46 672ft 71kts
01-Apr-18 04:47 45.514361 -73.423680 44 123ft 74kts
01-Apr-18 04:48 45.521931 -73.411422 127 87ft 17kts
01-Apr-18 04:49 45.519115 -73.407614 145 87ft 2kts
01-Apr-18 04:50 45.517382 -73.406578 160 87ft 8kts
01-Apr-18 04:51 45.517020 -73.405640 226 87ft 0kts
01-Apr-18 04:52 45.516951 -73.405741 223 87ft 0kts
01-Apr-18 04:53 45.516950 -73.405741 223 87ft 0kts
01-Apr-18 04:54 45.516951 -73.405741 223 87ft 0kts

Navigation Log

Ident Type
Flight plan parsing failed, navigation log unavailable